createdAt,value
2019-05-19T00:00:43.932Z,83.40
2019-05-19T00:01:43.944Z,83.85
2019-05-19T00:02:43.912Z,84.77
2019-05-19T00:03:43.900Z,85.18
2019-05-19T00:04:43.901Z,85.08
2019-05-19T00:05:43.879Z,85.69
2019-05-19T00:06:43.877Z,85.49
2019-05-19T00:07:43.863Z,85.08
2019-05-19T00:08:43.857Z,84.36
2019-05-19T00:09:43.845Z,83.95
2019-05-19T00:10:43.845Z,83.54
2019-05-19T00:11:43.816Z,83.44
2019-05-19T00:12:43.804Z,83.65
2019-05-19T00:13:43.794Z,83.54
2019-05-19T00:14:43.795Z,83.34
2019-05-19T00:15:43.817Z,83.65
2019-05-19T00:16:43.776Z,83.30
2019-05-19T00:17:43.755Z,83.75
2019-05-19T00:18:43.740Z,83.65
2019-05-19T00:19:43.742Z,83.65
2019-05-19T00:20:43.719Z,83.24
2019-05-19T00:21:43.709Z,83.54
2019-05-19T00:22:43.698Z,83.75
2019-05-19T00:23:43.686Z,83.95
2019-05-19T00:24:43.695Z,84.26
2019-05-19T00:25:43.668Z,84.77
2019-05-19T00:26:43.663Z,84.47
2019-05-19T00:27:43.649Z,84.77
2019-05-19T00:28:43.638Z,84.57
2019-05-19T00:29:43.683Z,83.85
2019-05-19T00:30:43.613Z,83.65
2019-05-19T00:31:43.615Z,83.95
2019-05-19T00:32:43.590Z,83.85
2019-05-19T00:33:43.580Z,83.59
2019-05-19T00:34:43.607Z,83.79
2019-05-19T00:35:43.565Z,83.65
2019-05-19T00:36:43.551Z,83.54
2019-05-19T00:37:43.537Z,83.34
2019-05-19T00:38:43.526Z,83.85
2019-05-19T00:39:43.522Z,83.44
2019-05-19T00:40:43.503Z,83.95
2019-05-19T00:41:43.511Z,83.24
2019-05-19T00:42:43.482Z,84.06
2019-05-19T00:43:43.470Z,84.57
2019-05-19T00:44:43.470Z,84.77
2019-05-19T00:45:43.450Z,84.67
2019-05-19T00:46:43.439Z,84.61
2019-05-19T00:47:43.428Z,84.81
2019-05-19T00:48:43.420Z,84.71
2019-05-19T00:49:43.415Z,84.81
2019-05-19T00:50:43.397Z,85.22
2019-05-19T00:51:43.386Z,85.22
2019-05-19T00:52:43.383Z,85.22
2019-05-19T00:53:43.371Z,85.53
2019-05-19T00:54:43.362Z,85.53
2019-05-19T00:55:43.342Z,85.67
2019-05-19T00:56:43.334Z,85.88
2019-05-19T00:57:43.324Z,85.67
2019-05-19T00:58:43.308Z,85.67
2019-05-19T00:59:43.316Z,85.67
2019-05-19T01:00:43.292Z,85.53
2019-05-19T01:01:43.293Z,85.16
2019-05-19T01:02:43.268Z,85.22
2019-05-19T01:03:43.255Z,85.22
2019-05-19T01:04:43.271Z,85.73
2019-05-19T01:05:43.239Z,85.47
2019-05-19T01:06:43.223Z,85.67
2019-05-19T01:07:43.213Z,85.73
2019-05-19T01:08:43.200Z,85.73
2019-05-19T01:09:43.222Z,85.63
2019-05-19T01:10:43.215Z,85.63
2019-05-19T01:11:43.167Z,85.42
2019-05-19T01:12:43.157Z,85.63
2019-05-19T01:13:43.146Z,85.32
2019-05-19T01:14:43.135Z,86.14
2019-05-19T01:15:43.136Z,85.12
2019-05-19T01:16:43.116Z,85.63
2019-05-19T01:17:43.104Z,85.94
2019-05-19T01:18:43.094Z,85.94
2019-05-19T01:19:55.335Z,85.94
2019-05-19T01:20:44.102Z,85.69
2019-05-19T01:21:43.075Z,85.32
2019-05-19T01:22:43.055Z,85.73
2019-05-19T01:23:43.042Z,85.49
2019-05-19T01:24:43.027Z,85.49
2019-05-19T01:25:43.025Z,85.38
2019-05-19T01:26:43.005Z,85.22
2019-05-19T01:27:42.995Z,85.73
2019-05-19T01:28:42.987Z,85.49
2019-05-19T01:29:42.979Z,85.59
2019-05-19T01:30:43.003Z,85.38
2019-05-19T01:31:42.951Z,85.69
2019-05-19T01:32:42.942Z,85.49
2019-05-19T01:33:42.942Z,85.59
2019-05-19T01:34:42.929Z,86.04
2019-05-19T01:35:42.922Z,85.59
2019-05-19T01:36:42.900Z,85.08
2019-05-19T01:37:42.894Z,85.79
2019-05-19T01:38:42.875Z,85.94
2019-05-19T01:39:42.864Z,85.79
2019-05-19T01:40:42.864Z,85.94
2019-05-19T01:41:42.845Z,85.63
2019-05-19T01:42:42.832Z,85.53
2019-05-19T01:43:42.822Z,85.73
2019-05-19T01:44:42.810Z,85.73
2019-05-19T01:45:42.816Z,85.73
2019-05-19T01:46:42.806Z,85.02
2019-05-19T01:47:42.780Z,85.22
2019-05-19T01:48:42.766Z,85.63
2019-05-19T01:49:42.756Z,85.32
2019-05-19T01:50:42.782Z,84.91
2019-05-19T01:51:42.739Z,84.81
2019-05-19T01:52:42.742Z,85.22
2019-05-19T01:53:42.715Z,84.81
2019-05-19T01:54:42.701Z,85.02
2019-05-19T01:55:42.699Z,84.71
2019-05-19T01:56:42.686Z,84.50
2019-05-19T01:57:42.675Z,85.02
2019-05-19T01:58:42.661Z,84.71
2019-05-19T01:59:42.654Z,85.02
2019-05-19T02:00:42.645Z,84.91
2019-05-19T02:01:42.633Z,84.91
2019-05-19T02:02:42.615Z,84.50
2019-05-19T02:03:42.605Z,85.63
2019-05-19T02:04:42.594Z,85.73
2019-05-19T02:05:42.590Z,85.73
2019-05-19T02:06:42.577Z,85.63
2019-05-19T02:07:42.568Z,85.53
2019-05-19T02:08:42.553Z,85.57
2019-05-19T02:09:42.635Z,85.67
2019-05-19T02:10:42.539Z,85.53
2019-05-19T02:11:42.526Z,85.47
2019-05-19T02:12:42.529Z,85.36
2019-05-19T02:13:42.495Z,86.08
2019-05-19T02:14:42.487Z,86.18
2019-05-19T02:15:42.515Z,85.36
2019-05-19T02:16:42.464Z,85.02
2019-05-19T02:17:42.454Z,84.61
2019-05-19T02:18:42.457Z,84.61
2019-05-19T02:19:42.433Z,84.71
2019-05-19T02:20:42.433Z,85.12
2019-05-19T02:21:42.473Z,85.32
2019-05-19T02:22:42.409Z,85.02
2019-05-19T02:23:42.387Z,84.81
2019-05-19T02:24:42.380Z,84.20
2019-05-19T02:25:42.377Z,84.09
2019-05-19T02:26:42.370Z,84.20
2019-05-19T02:27:42.363Z,83.89
2019-05-19T02:28:42.333Z,84.41
2019-05-19T02:29:42.328Z,84.30
2019-05-19T02:30:42.314Z,84.71
2019-05-19T02:31:42.312Z,84.41
2019-05-19T02:32:42.293Z,84.20
2019-05-19T02:33:42.281Z,84.30
2019-05-19T02:34:42.269Z,84.20
2019-05-19T02:35:42.259Z,84.20
2019-05-19T02:36:42.263Z,84.20
2019-05-19T02:37:42.238Z,84.20
2019-05-19T02:38:42.227Z,84.20
2019-05-19T02:39:42.214Z,84.41
2019-05-19T02:40:42.203Z,84.34
2019-05-19T02:41:42.203Z,84.91
2019-05-19T02:42:42.185Z,84.85
2019-05-19T02:43:42.172Z,83.93
2019-05-19T02:44:42.174Z,84.34
2019-05-19T02:45:42.150Z,84.75
2019-05-19T02:46:42.148Z,84.75
2019-05-19T02:47:42.129Z,85.16
2019-05-19T02:48:42.119Z,85.71
2019-05-19T02:49:42.104Z,85.57
2019-05-19T02:50:51.671Z,85.50
2019-05-19T02:51:43.097Z,85.20
2019-05-19T02:52:42.079Z,85.36
2019-05-19T02:53:42.081Z,85.40
2019-05-19T02:54:42.065Z,85.88
2019-05-19T02:55:42.042Z,85.91
2019-05-19T02:56:42.044Z,85.81
2019-05-19T02:57:42.021Z,85.50
2019-05-19T02:58:42.010Z,85.26
2019-05-19T02:59:41.998Z,85.06
2019-05-19T03:00:42.013Z,85.06
2019-05-19T03:01:41.990Z,84.75
2019-05-19T03:02:41.970Z,85.06
2019-05-19T03:03:41.954Z,85.10
2019-05-19T03:04:41.954Z,84.85
2019-05-19T03:05:41.932Z,84.95
2019-05-19T03:06:41.931Z,85.16
2019-05-19T03:07:41.923Z,85.30
2019-05-19T03:08:41.908Z,85.16
2019-05-19T03:09:41.891Z,85.30
2019-05-19T03:10:41.883Z,85.20
2019-05-19T03:11:41.877Z,85.30
2019-05-19T03:12:41.854Z,85.20
2019-05-19T03:13:41.845Z,85.20
2019-05-19T03:14:41.834Z,85.71
2019-05-19T03:15:41.822Z,85.91
2019-05-19T03:16:41.819Z,85.30
2019-05-19T03:17:41.810Z,85.30
2019-05-19T03:18:41.787Z,85.71
2019-05-19T03:19:41.782Z,85.61
2019-05-19T03:20:41.766Z,85.71
2019-05-19T03:21:41.763Z,85.50
2019-05-19T03:22:41.748Z,85.50
2019-05-19T03:23:41.734Z,85.50
2019-05-19T03:24:41.723Z,85.81
2019-05-19T03:25:44.215Z,85.36
2019-05-19T03:26:41.893Z,85.36
2019-05-19T03:27:41.691Z,84.85
2019-05-19T03:28:41.687Z,84.69
2019-05-19T03:29:41.669Z,84.28
2019-05-19T03:30:41.685Z,84.72
2019-05-19T03:31:41.648Z,85.24
2019-05-19T03:32:41.660Z,85.64
2019-05-19T03:33:41.654Z,85.96
2019-05-19T03:34:41.627Z,85.69
2019-05-19T03:35:41.604Z,85.89
2019-05-19T03:36:41.601Z,85.99
2019-05-19T03:37:41.592Z,85.96
2019-05-19T03:38:41.575Z,85.96
2019-05-19T03:39:41.559Z,85.03
2019-05-19T03:40:41.549Z,84.79
2019-05-19T03:41:41.539Z,84.48
2019-05-19T03:42:41.550Z,83.93
2019-05-19T03:43:41.518Z,82.87
2019-05-19T03:44:41.506Z,81.91
2019-05-19T03:45:41.495Z,81.65
2019-05-19T03:46:41.484Z,81.91
2019-05-19T03:47:41.482Z,81.85
2019-05-19T03:48:41.464Z,81.85
2019-05-19T03:49:41.452Z,81.91
2019-05-19T03:50:41.440Z,81.23
2019-05-19T03:51:41.429Z,79.55
2019-05-19T03:52:41.432Z,77.95
2019-05-19T03:53:41.411Z,77.06
2019-05-19T03:54:41.408Z,75.67
2019-05-19T03:55:41.402Z,76.39
2019-05-19T03:56:41.377Z,76.15
2019-05-19T03:57:41.374Z,75.09
2019-05-19T03:58:41.357Z,73.60
2019-05-19T03:59:41.341Z,71.70
2019-05-19T04:00:41.331Z,70.96
2019-05-19T04:01:41.319Z,69.37
2019-05-19T04:02:41.318Z,69.47
2019-05-19T04:03:41.356Z,69.03
2019-05-19T04:04:41.288Z,68.90
2019-05-19T04:05:41.277Z,68.87
2019-05-19T04:06:41.332Z,67.65
2019-05-19T04:07:41.281Z,67.52
2019-05-19T04:08:41.243Z,67.52
2019-05-19T04:09:41.230Z,67.42
2019-05-19T04:10:41.221Z,67.49
2019-05-19T04:11:41.210Z,67.29
2019-05-19T04:12:41.208Z,66.85
2019-05-19T04:13:41.191Z,65.70
2019-05-19T04:14:41.178Z,65.98
2019-05-19T04:15:41.167Z,65.88
2019-05-19T04:16:41.157Z,65.34
2019-05-19T04:17:41.158Z,64.70
2019-05-19T04:18:41.134Z,64.27
2019-05-19T04:19:41.121Z,62.76
2019-05-19T04:20:41.115Z,62.85
2019-05-19T04:21:48.796Z,62.88
2019-05-19T04:22:42.101Z,64.47
2019-05-19T04:23:41.081Z,63.73
2019-05-19T04:24:41.078Z,63.06
2019-05-19T04:25:41.060Z,63.26
2019-05-19T04:26:41.056Z,63.56
2019-05-19T04:27:41.046Z,63.03
2019-05-19T04:28:41.026Z,61.79
2019-05-19T04:29:41.017Z,61.96
2019-05-19T04:30:41.004Z,61.63
2019-05-19T04:31:40.994Z,60.42
2019-05-19T04:32:41.006Z,60.47
2019-05-19T04:33:40.973Z,59.03
2019-05-19T04:34:40.961Z,58.07
2019-05-19T04:35:40.956Z,57.34
2019-05-19T04:36:40.940Z,56.63
2019-05-19T04:37:40.933Z,57.54
2019-05-19T04:38:40.935Z,56.74
2019-05-19T04:39:40.911Z,56.63
2019-05-19T04:40:40.897Z,56.34
2019-05-19T04:41:40.888Z,56.59
2019-05-19T04:42:40.878Z,58.42
2019-05-19T04:43:40.891Z,58.42
2019-05-19T04:44:40.855Z,58.90
2019-05-19T04:45:40.848Z,58.70
2019-05-19T04:46:40.834Z,57.26
2019-05-19T04:47:40.826Z,57.46
2019-05-19T04:48:40.819Z,57.64
2019-05-19T04:49:40.803Z,56.18
2019-05-19T04:50:40.792Z,55.02
2019-05-19T04:51:40.797Z,54.90
2019-05-19T04:52:40.771Z,55.47
2019-05-19T04:53:40.767Z,53.57
2019-05-19T04:54:40.747Z,55.90
2019-05-19T04:55:40.742Z,53.69
2019-05-19T04:56:40.726Z,54.24
2019-05-19T04:57:40.717Z,52.97
2019-05-19T04:58:40.715Z,51.84
2019-05-19T04:59:40.695Z,50.65
2019-05-19T05:00:40.691Z,51.62
2019-05-19T05:01:40.682Z,50.60
2019-05-19T05:02:40.672Z,49.90
2019-05-19T05:03:40.664Z,50.23
2019-05-19T05:04:40.655Z,47.71
2019-05-19T05:05:40.635Z,48.38
2019-05-19T05:06:40.623Z,47.91
2019-05-19T05:07:40.620Z,49.20
2019-05-19T05:08:40.614Z,49.55
2019-05-19T05:09:40.591Z,51.50
2019-05-19T05:10:40.580Z,52.39
2019-05-19T05:11:40.569Z,52.80
2019-05-19T05:12:40.559Z,51.75
2019-05-19T05:13:40.561Z,50.47
2019-05-19T05:14:40.538Z,55.05
2019-05-19T05:15:40.527Z,53.94
2019-05-19T05:16:40.552Z,55.47
2019-05-19T05:17:40.518Z,56.30
2019-05-19T05:18:40.504Z,57.35
2019-05-19T05:19:40.528Z,58.29
2019-05-19T05:20:40.476Z,57.44
2019-05-19T05:21:40.465Z,59.50
2019-05-19T05:22:40.458Z,60.24
2019-05-19T05:23:40.453Z,60.27
2019-05-19T05:24:40.434Z,62.84
2019-05-19T05:25:40.423Z,63.37
2019-05-19T05:26:40.427Z,63.37
2019-05-19T05:27:40.401Z,62.46
2019-05-19T05:28:40.399Z,63.07
2019-05-19T05:29:40.380Z,62.97
2019-05-19T05:30:40.373Z,62.74
2019-05-19T05:31:40.358Z,63.01
2019-05-19T05:32:40.350Z,62.24
2019-05-19T05:33:40.346Z,62.32
2019-05-19T05:34:40.327Z,59.83
2019-05-19T05:35:40.316Z,60.84
2019-05-19T05:36:40.305Z,59.91
2019-05-19T05:37:40.296Z,60.81
2019-05-19T05:38:40.297Z,59.78
2019-05-19T05:39:40.272Z,59.58
2019-05-19T05:40:40.262Z,59.55
2019-05-19T05:41:40.254Z,58.64
2019-05-19T05:42:40.257Z,57.35
2019-05-19T05:43:40.241Z,57.46
2019-05-19T05:44:40.222Z,58.01
2019-05-19T05:45:40.211Z,58.64
2019-05-19T05:46:40.202Z,60.18
2019-05-19T05:47:40.187Z,59.98
2019-05-19T05:48:40.214Z,61.21
2019-05-19T05:49:40.168Z,61.18
2019-05-19T05:50:40.157Z,61.08
2019-05-19T05:51:40.147Z,60.65
2019-05-19T05:52:40.136Z,58.59
2019-05-19T05:53:40.124Z,58.59
2019-05-19T05:54:40.121Z,58.18
2019-05-19T05:55:40.103Z,58.72
2019-05-19T05:56:40.091Z,58.84
2019-05-19T05:57:40.091Z,60.18
2019-05-19T05:58:40.070Z,60.11
2019-05-19T05:59:40.069Z,61.31
2019-05-19T06:00:40.052Z,61.14
2019-05-19T06:01:40.044Z,61.82
2019-05-19T06:02:40.029Z,61.11
2019-05-19T06:03:40.018Z,61.08
2019-05-19T06:04:40.015Z,59.85
2019-05-19T06:05:40.000Z,58.92
2019-05-19T06:06:39.987Z,58.51
2019-05-19T06:07:39.976Z,58.79
2019-05-19T06:08:39.969Z,56.52
2019-05-19T06:09:39.967Z,56.67
2019-05-19T06:10:39.945Z,55.44
2019-05-19T06:11:39.936Z,56.49
2019-05-19T06:12:39.923Z,53.37
2019-05-19T06:13:39.914Z,51.77
2019-05-19T06:14:39.912Z,51.59
2019-05-19T06:15:39.891Z,49.51
2019-05-19T06:16:39.881Z,48.34
2019-05-19T06:17:39.872Z,47.99
2019-05-19T06:18:39.863Z,46.78
2019-05-19T06:19:39.869Z,47.77
2019-05-19T06:20:39.841Z,49.49
2019-05-19T06:21:39.831Z,47.23
2019-05-19T06:22:55.121Z,45.79
2019-05-19T06:23:40.811Z,47.57
2019-05-19T06:24:39.815Z,45.19
2019-05-19T06:25:39.793Z,45.59
2019-05-19T06:26:39.785Z,47.92
2019-05-19T06:27:39.773Z,44.95
2019-05-19T06:28:39.762Z,48.41
2019-05-19T06:29:39.772Z,47.97
2019-05-19T06:30:39.742Z,45.17
2019-05-19T06:31:39.735Z,45.23
2019-05-19T06:32:39.722Z,45.97
2019-05-19T06:33:39.712Z,43.46
2019-05-19T06:34:39.716Z,42.94
2019-05-19T06:35:39.694Z,43.06
2019-05-19T06:36:39.683Z,43.42
2019-05-19T06:37:39.673Z,45.40
2019-05-19T06:38:39.678Z,44.76
2019-05-19T06:39:39.661Z,43.67
2019-05-19T06:40:39.644Z,42.88
2019-05-19T06:41:39.634Z,44.86
2019-05-19T06:42:39.623Z,43.77
2019-05-19T06:43:39.636Z,43.54
2019-05-19T06:44:39.615Z,45.68
2019-05-19T06:45:39.596Z,46.34
2019-05-19T06:46:39.587Z,46.42
2019-05-19T06:47:39.576Z,44.41
2019-05-19T06:48:39.569Z,44.76
2019-05-19T06:49:39.563Z,45.90
2019-05-19T06:50:40.722Z,43.10
2019-05-19T06:51:39.533Z,41.14
2019-05-19T06:52:39.523Z,41.93
2019-05-19T06:53:39.512Z,42.43
2019-05-19T06:54:39.511Z,42.90
2019-05-19T06:55:39.491Z,40.94
2019-05-19T06:56:39.481Z,41.65
2019-05-19T06:57:39.474Z,42.07
2019-05-19T06:58:39.460Z,42.29
2019-05-19T06:59:39.461Z,43.00
2019-05-19T07:00:39.444Z,44.60
2019-05-19T07:01:39.433Z,43.24
2019-05-19T07:02:39.421Z,44.77
2019-05-19T07:03:39.410Z,45.39
2019-05-19T07:04:39.450Z,47.02
2019-05-19T07:05:39.393Z,46.11
2019-05-19T07:06:39.397Z,45.56
2019-05-19T07:07:39.370Z,45.32
2019-05-19T07:08:39.359Z,45.42
2019-05-19T07:09:39.351Z,43.52
2019-05-19T07:10:39.347Z,44.43
2019-05-19T07:11:39.328Z,44.73
2019-05-19T07:12:39.319Z,44.78
2019-05-19T07:13:39.307Z,44.71
2019-05-19T07:14:39.296Z,44.35
2019-05-19T07:15:39.295Z,43.16
2019-05-19T07:16:39.277Z,44.45
2019-05-19T07:17:39.265Z,46.16
2019-05-19T07:18:39.270Z,46.01
2019-05-19T07:19:39.246Z,48.47
2019-05-19T07:20:39.250Z,45.01
2019-05-19T07:21:39.224Z,47.52
2019-05-19T07:22:39.216Z,46.03
2019-05-19T07:23:39.205Z,48.41
2019-05-19T07:24:39.195Z,45.23
2019-05-19T07:25:39.191Z,47.20
2019-05-19T07:26:39.172Z,45.68
2019-05-19T07:27:39.161Z,45.41
2019-05-19T07:28:39.152Z,47.38
2019-05-19T07:29:39.142Z,47.67
2019-05-19T07:30:39.143Z,45.56
2019-05-19T07:31:39.121Z,44.07
2019-05-19T07:32:39.112Z,43.98
2019-05-19T07:33:39.101Z,44.89
2019-05-19T07:34:39.090Z,46.78
2019-05-19T07:35:39.087Z,44.71
2019-05-19T07:36:39.069Z,47.89
2019-05-19T07:37:39.060Z,46.03
2019-05-19T07:38:39.046Z,47.13
2019-05-19T07:39:39.050Z,47.40
2019-05-19T07:40:39.033Z,47.22
2019-05-19T07:41:39.013Z,46.75
2019-05-19T07:42:39.045Z,47.84
2019-05-19T07:43:38.997Z,47.52
2019-05-19T07:44:38.984Z,45.61
2019-05-19T07:45:38.979Z,45.59
2019-05-19T07:46:38.964Z,46.36
2019-05-19T07:47:38.953Z,44.00
2019-05-19T07:48:38.942Z,43.30
2019-05-19T07:49:38.928Z,43.54
2019-05-19T07:50:38.926Z,45.45
2019-05-19T07:51:38.913Z,48.22
2019-05-19T07:52:38.901Z,47.70
2019-05-19T07:53:42.976Z,44.89
2019-05-19T07:54:38.874Z,45.09
2019-05-19T07:55:38.876Z,43.23
2019-05-19T07:56:38.857Z,43.62
2019-05-19T07:57:38.841Z,44.64
2019-05-19T07:58:38.831Z,43.44
2019-05-19T07:59:38.819Z,43.72
2019-05-19T08:00:38.816Z,44.74
2019-05-19T08:01:38.798Z,44.74
2019-05-19T08:02:38.866Z,45.23
2019-05-19T08:03:38.778Z,46.70
2019-05-19T08:04:38.765Z,45.63
2019-05-19T08:05:38.771Z,46.60
2019-05-19T08:06:38.747Z,46.31
2019-05-19T08:07:38.763Z,46.98
2019-05-19T08:08:38.722Z,44.37
2019-05-19T08:09:38.714Z,44.35
2019-05-19T08:10:38.712Z,43.04
2019-05-19T08:11:38.692Z,42.43
2019-05-19T08:12:38.685Z,42.43
2019-05-19T08:13:38.672Z,42.03
2019-05-19T08:14:38.661Z,41.53
2019-05-19T08:15:38.657Z,43.28
2019-05-19T08:16:38.638Z,44.67
2019-05-19T08:17:38.632Z,42.69
2019-05-19T08:18:38.621Z,43.30
2019-05-19T08:19:38.607Z,44.77
2019-05-19T08:20:38.897Z,42.88
2019-05-19T08:21:38.583Z,45.17
2019-05-19T08:22:38.587Z,43.50
2019-05-19T08:23:38.563Z,45.17
2019-05-19T08:24:38.559Z,43.40
2019-05-19T08:25:38.541Z,45.29
2019-05-19T08:26:38.562Z,43.38
2019-05-19T08:27:38.550Z,43.48
2019-05-19T08:28:38.541Z,43.30
2019-05-19T08:29:38.536Z,43.60
2019-05-19T08:30:38.491Z,42.93
2019-05-19T08:31:38.485Z,44.24
2019-05-19T08:32:38.467Z,45.01
2019-05-19T08:33:38.467Z,45.51
2019-05-19T08:34:38.445Z,46.88
2019-05-19T08:35:38.435Z,47.55
2019-05-19T08:36:38.433Z,44.07
2019-05-19T08:37:38.415Z,44.70
2019-05-19T08:38:38.407Z,43.82
2019-05-19T08:39:38.396Z,45.03
2019-05-19T08:40:38.383Z,46.05
2019-05-19T08:41:38.379Z,46.55
2019-05-19T08:42:38.360Z,49.13
2019-05-19T08:43:38.349Z,47.82
2019-05-19T08:44:38.345Z,45.21
2019-05-19T08:45:38.330Z,44.81
2019-05-19T08:46:38.328Z,46.13
2019-05-19T08:47:38.314Z,48.02
2019-05-19T08:48:38.298Z,48.79
2019-05-19T08:49:38.289Z,48.77
2019-05-19T08:50:38.276Z,45.27
2019-05-19T08:51:38.276Z,45.37
2019-05-19T08:52:38.259Z,44.77
2019-05-19T08:53:38.249Z,44.99
2019-05-19T08:54:38.236Z,47.45
2019-05-19T08:55:38.225Z,44.75
2019-05-19T08:56:38.222Z,45.19
2019-05-19T08:57:38.203Z,44.42
2019-05-19T08:58:38.195Z,43.44
2019-05-19T08:59:38.187Z,45.73
2019-05-19T09:00:38.636Z,46.35
2019-05-19T09:01:38.172Z,45.23
2019-05-19T09:02:38.152Z,45.53
2019-05-19T09:03:38.143Z,45.75
2019-05-19T09:04:38.136Z,45.03
2019-05-19T09:05:38.124Z,47.10
2019-05-19T09:06:38.117Z,44.93
2019-05-19T09:07:38.099Z,44.54
2019-05-19T09:08:38.092Z,44.93
2019-05-19T09:09:38.081Z,45.36
2019-05-19T09:10:38.072Z,45.87
2019-05-19T09:11:38.068Z,46.55
2019-05-19T09:12:38.046Z,48.02
2019-05-19T09:13:38.035Z,45.81
2019-05-19T09:14:38.026Z,45.21
2019-05-19T09:15:38.013Z,45.79
2019-05-19T09:16:38.014Z,45.19
2019-05-19T09:17:37.997Z,44.40
2019-05-19T09:18:37.987Z,45.39
2019-05-19T09:19:37.972Z,44.49
2019-05-19T09:20:37.963Z,45.19
2019-05-19T09:21:37.962Z,45.27
2019-05-19T09:22:37.940Z,45.68
2019-05-19T09:23:37.930Z,44.77
2019-05-19T09:24:37.922Z,44.48
2019-05-19T09:25:37.910Z,46.48
2019-05-19T09:26:37.910Z,43.48
2019-05-19T09:27:37.949Z,44.27
2019-05-19T09:28:37.880Z,44.07
2019-05-19T09:29:37.869Z,44.97
2019-05-19T09:30:37.857Z,45.17
2019-05-19T09:31:41.101Z,44.48
2019-05-19T09:32:37.848Z,45.94
2019-05-19T09:33:37.825Z,44.67
2019-05-19T09:34:37.817Z,44.25
2019-05-19T09:35:37.806Z,43.98
2019-05-19T09:36:37.794Z,44.75
2019-05-19T09:37:37.800Z,44.35
2019-05-19T09:38:37.773Z,44.73
2019-05-19T09:39:37.762Z,44.53
2019-05-19T09:40:37.755Z,45.84
2019-05-19T09:41:37.743Z,43.16
2019-05-19T09:42:37.750Z,44.35
2019-05-19T09:43:37.721Z,47.31
2019-05-19T09:44:37.728Z,43.16
2019-05-19T09:45:37.699Z,45.84
2019-05-19T09:46:37.691Z,47.01
2019-05-19T09:47:37.921Z,42.55
2019-05-19T09:48:37.668Z,44.55
2019-05-19T09:49:37.657Z,45.64
2019-05-19T09:50:37.648Z,43.66
2019-05-19T09:51:37.638Z,43.26
2019-05-19T09:52:37.636Z,43.96
2019-05-19T09:53:37.613Z,43.08
2019-05-19T09:54:45.214Z,44.07
2019-05-19T09:55:38.593Z,45.98
2019-05-19T09:56:37.587Z,44.97
2019-05-19T09:57:37.727Z,46.76
2019-05-19T09:58:37.560Z,46.31
2019-05-19T09:59:37.549Z,43.36
2019-05-19T10:00:37.539Z,44.45
2019-05-19T10:01:37.528Z,46.04
2019-05-19T10:02:37.527Z,45.74
2019-05-19T10:03:37.509Z,45.72
2019-05-19T10:04:37.499Z,44.43
2019-05-19T10:05:37.505Z,44.63
2019-05-19T10:06:37.479Z,44.25
2019-05-19T10:07:37.478Z,43.38
2019-05-19T10:08:37.453Z,45.37
2019-05-19T10:09:37.448Z,45.68
2019-05-19T10:10:37.433Z,44.92
2019-05-19T10:11:37.424Z,44.32
2019-05-19T10:12:37.421Z,44.42
2019-05-19T10:13:37.941Z,44.81
2019-05-19T10:14:37.394Z,44.52
2019-05-19T10:15:37.381Z,45.11
2019-05-19T10:16:37.451Z,44.42
2019-05-19T10:17:37.371Z,46.31
2019-05-19T10:18:37.353Z,46.08
2019-05-19T10:19:37.340Z,44.99
2019-05-19T10:20:37.328Z,44.70
2019-05-19T10:21:37.320Z,45.07
2019-05-19T10:22:37.315Z,44.67
2019-05-19T10:23:37.297Z,44.48
2019-05-19T10:24:37.286Z,43.76
2019-05-19T10:25:37.277Z,44.15
2019-05-19T10:26:37.266Z,44.77
2019-05-19T10:27:37.265Z,45.19
2019-05-19T10:28:37.245Z,45.98
2019-05-19T10:29:37.234Z,44.29
2019-05-19T10:30:37.229Z,46.20
2019-05-19T10:31:37.215Z,46.50
2019-05-19T10:32:37.214Z,46.28
2019-05-19T10:33:37.196Z,45.47
2019-05-19T10:34:37.184Z,43.70
2019-05-19T10:35:37.222Z,45.79
2019-05-19T10:36:37.161Z,45.47
2019-05-19T10:37:37.230Z,49.21
2019-05-19T10:38:37.142Z,42.55
2019-05-19T10:39:37.129Z,44.75
2019-05-19T10:40:37.120Z,44.65
2019-05-19T10:41:37.122Z,43.48
2019-05-19T10:42:37.131Z,44.48
2019-05-19T10:43:37.090Z,45.64
2019-05-19T10:44:37.077Z,43.46
2019-05-19T10:45:37.066Z,43.46
2019-05-19T10:46:37.056Z,43.08
2019-05-19T10:47:37.044Z,42.86
2019-05-19T10:48:37.042Z,43.26
2019-05-19T10:49:37.028Z,42.85
2019-05-19T10:50:37.013Z,43.04
2019-05-19T10:51:37.004Z,43.44
2019-05-19T10:52:36.994Z,43.42
2019-05-19T10:53:36.998Z,43.04
2019-05-19T10:54:36.972Z,47.11
2019-05-19T10:55:37.220Z,44.01
2019-05-19T10:56:36.950Z,43.52
2019-05-19T10:57:36.944Z,42.03
2019-05-19T10:58:36.937Z,41.14
2019-05-19T10:59:36.921Z,42.31
2019-05-19T11:00:36.908Z,41.71
2019-05-19T11:01:36.900Z,41.31
2019-05-19T11:02:36.888Z,40.70
2019-05-19T11:03:36.887Z,40.72
2019-05-19T11:04:36.867Z,43.40
2019-05-19T11:05:36.855Z,43.38
2019-05-19T11:06:36.848Z,42.17
2019-05-19T11:07:36.840Z,40.20
2019-05-19T11:08:36.835Z,39.02
2019-05-19T11:09:36.819Z,39.51
2019-05-19T11:10:36.801Z,41.00
2019-05-19T11:11:36.789Z,40.60
2019-05-19T11:12:36.783Z,38.62
2019-05-19T11:13:36.776Z,39.23
2019-05-19T11:14:36.768Z,40.20
2019-05-19T11:15:36.746Z,40.90
2019-05-19T11:16:36.737Z,40.39
2019-05-19T11:17:36.728Z,40.58
2019-05-19T11:18:36.727Z,40.58
2019-05-19T11:19:36.708Z,39.48
2019-05-19T11:20:36.693Z,40.56
2019-05-19T11:21:36.682Z,40.48
2019-05-19T11:22:36.672Z,39.40
2019-05-19T11:23:36.671Z,39.02
2019-05-19T11:24:36.657Z,39.02
2019-05-19T11:25:50.587Z,40.50
2019-05-19T11:26:37.628Z,39.14
2019-05-19T11:27:36.618Z,39.53
2019-05-19T11:28:36.617Z,40.80
2019-05-19T11:29:36.604Z,43.26
2019-05-19T11:30:36.587Z,40.48
2019-05-19T11:31:36.575Z,40.39
2019-05-19T11:32:36.565Z,39.00
2019-05-19T11:33:36.563Z,40.17
2019-05-19T11:34:36.545Z,38.68
2019-05-19T11:35:36.534Z,38.11
2019-05-19T11:36:36.524Z,39.02
2019-05-19T11:37:36.514Z,39.02
2019-05-19T11:38:36.507Z,38.82
2019-05-19T11:39:36.492Z,38.90
2019-05-19T11:40:36.479Z,39.59
2019-05-19T11:41:36.467Z,40.78
2019-05-19T11:42:36.459Z,39.69
2019-05-19T11:43:36.456Z,39.40
2019-05-19T11:44:36.435Z,42.25
2019-05-19T11:45:36.425Z,39.48
2019-05-19T11:46:36.414Z,39.65
2019-05-19T11:47:36.409Z,39.59
2019-05-19T11:48:36.400Z,42.25
2019-05-19T11:49:36.382Z,43.21
2019-05-19T11:50:36.371Z,40.53
2019-05-19T11:51:36.362Z,38.07
2019-05-19T11:52:36.350Z,38.78
2019-05-19T11:53:36.350Z,40.29
2019-05-19T11:54:36.329Z,40.90
2019-05-19T11:55:36.317Z,40.80
2019-05-19T11:56:36.308Z,40.90
2019-05-19T11:57:36.300Z,42.98
2019-05-19T11:58:36.322Z,42.71
2019-05-19T11:59:36.275Z,42.50
2019-05-19T12:00:36.276Z,43.32
2019-05-19T12:01:36.256Z,44.59
2019-05-19T12:02:36.252Z,43.40
2019-05-19T12:03:36.234Z,43.20
2019-05-19T12:04:36.351Z,45.38
2019-05-19T12:05:36.213Z,45.45
2019-05-19T12:06:39.816Z,43.18
2019-05-19T12:07:36.193Z,44.76
2019-05-19T12:08:36.179Z,44.49
2019-05-19T12:09:36.178Z,44.81
2019-05-19T12:10:36.159Z,45.57
2019-05-19T12:11:36.149Z,45.45
2019-05-19T12:12:36.154Z,44.76
2019-05-19T12:13:36.127Z,44.09
2019-05-19T12:14:36.126Z,44.67
2019-05-19T12:15:36.103Z,44.46
2019-05-19T12:16:36.095Z,44.94
2019-05-19T12:17:36.087Z,45.83
2019-05-19T12:18:36.077Z,44.74
2019-05-19T12:19:36.070Z,45.75
2019-05-19T12:20:36.058Z,44.68
2019-05-19T12:21:36.042Z,44.83
2019-05-19T12:22:36.029Z,45.47
2019-05-19T12:23:36.031Z,46.66
2019-05-19T12:24:36.017Z,46.95
2019-05-19T12:25:35.997Z,48.82
2019-05-19T12:26:35.988Z,45.64
2019-05-19T12:27:35.976Z,46.22
2019-05-19T12:28:35.972Z,46.49
2019-05-19T12:29:35.963Z,44.31
2019-05-19T12:30:35.946Z,46.67
2019-05-19T12:31:35.935Z,42.88
2019-05-19T12:32:35.937Z,43.48
2019-05-19T12:33:50.788Z,44.27
2019-05-19T12:34:36.911Z,45.34
2019-05-19T12:35:35.889Z,45.36
2019-05-19T12:36:35.880Z,46.77
2019-05-19T12:37:35.871Z,44.41
2019-05-19T12:38:35.862Z,44.90
2019-05-19T12:39:35.857Z,45.74
2019-05-19T12:40:35.836Z,47.73
2019-05-19T12:41:35.828Z,46.42
2019-05-19T12:42:35.817Z,47.71
2019-05-19T12:43:35.805Z,45.32
2019-05-19T12:44:35.801Z,46.00
2019-05-19T12:45:35.784Z,46.22
2019-05-19T12:46:35.772Z,47.58
2019-05-19T12:47:35.764Z,47.58
2019-05-19T12:48:35.750Z,45.62
2019-05-19T12:49:35.749Z,47.11
2019-05-19T12:50:35.736Z,46.02
2019-05-19T12:51:35.718Z,47.01
2019-05-19T12:52:35.709Z,46.34